Time;durP1;ratioP1;P1;durP2;ratioP2;P2;SDS_P1;SDS_P2;PMS_P1;PMS_P2;Temp;Humidity;BMP_temperature;BMP_pressure;BME280_temperature;BME280_humidity;BME280_pressure;Samples;Min_cycle;Max_cycle;Signal;HPM_P1;HPM_P2
2022/09/18 00:00:57;;;;;;;2.33;0.50;;;21.90;68.50;;;;;;5074749;28;20025;-71
2022/09/18 00:03:22;;;;;;;0.82;0.30;;;21.90;67.50;;;;;;5074755;28;20036;-72
2022/09/18 00:05:48;;;;;;;0.73;0.47;;;21.90;67.50;;;;;;5074658;28;20153;-71
2022/09/18 00:08:14;;;;;;;2.15;0.50;;;21.90;67.50;;;;;;5116461;28;20152;-71
2022/09/18 00:10:44;;;;;;;1.92;0.63;;;21.90;67.60;;;;;;5116176;28;20027;-71
2022/09/18 00:13:10;;;;;;;1.63;0.60;;;21.90;67.50;;;;;;5115105;28;20030;-71
2022/09/18 00:15:35;;;;;;;1.00;0.40;;;21.80;67.40;;;;;;5115111;28;20020;-71
2022/09/18 00:18:01;;;;;;;0.93;0.50;;;21.80;67.50;;;;;;5114897;28;20487;-71
2022/09/18 00:20:27;;;;;;;0.40;0.40;;;21.80;67.40;;;;;;5115099;28;20016;-71
2022/09/18 00:22:52;;;;;;;0.73;0.28;;;21.80;67.60;;;;;;5114817;28;20035;-71
2022/09/18 00:25:18;;;;;;;1.00;0.35;;;21.80;67.60;;;;;;5097970;28;20129;-71
2022/09/18 00:27:44;;;;;;;0.50;0.40;;;21.80;67.60;;;;;;5115945;28;20030;-71
2022/09/18 00:30:10;;;;;;;0.65;0.35;;;21.80;67.70;;;;;;5116297;28;20343;-71
2022/09/18 00:32:35;;;;;;;2.67;0.50;;;21.80;67.50;;;;;;5115671;28;20455;-71
2022/09/18 00:35:01;;;;;;;1.05;0.30;;;21.80;67.60;;;;;;5114779;28;20030;-71
2022/09/18 00:37:27;;;;;;;1.23;0.40;;;21.80;67.60;;;;;;5114350;28;20019;-71
2022/09/18 00:39:52;;;;;;;1.05;0.40;;;21.80;67.70;;;;;;5115550;28;20027;-71
2022/09/18 00:42:19;;;;;;;3.42;0.50;;;21.80;67.70;;;;;;5099087;28;20029;-71
2022/09/18 00:44:45;;;;;;;2.75;0.50;;;21.80;67.70;;;;;;5073867;28;20046;-71
2022/09/18 00:47:11;;;;;;;0.55;0.38;;;21.80;67.70;;;;;;5073978;28;20043;-71
2022/09/18 00:50:17;;;;;;;0.63;0.40;;;21.80;67.70;;;;;;5074704;28;20512;-71
2022/09/18 00:53:00;;;;;;;1.83;0.52;;;21.70;67.70;;;;;;5074279;28;20072;-71
2022/09/18 00:55:38;;;;;;;1.10;0.57;;;21.70;67.70;;;;;;5073988;28;20025;-71
2022/09/18 00:58:04;;;;;;;1.75;0.30;;;21.70;67.70;;;;;;5073755;28;20547;-71
2022/09/18 01:00:30;;;;;;;1.17;0.40;;;21.70;67.80;;;;;;5073582;28;20099;-71
2022/09/18 01:02:56;;;;;;;0.65;0.30;;;21.70;67.80;;;;;;5073468;28;20511;-71
2022/09/18 01:05:44;;;;;;;0.93;0.50;;;21.70;67.80;;;;;;5073616;28;20096;-71
2022/09/18 01:08:26;;;;;;;1.23;0.30;;;21.70;67.80;;;;;;5071458;28;20519;-71
2022/09/18 01:11:09;;;;;;;1.50;0.47;;;21.70;67.90;;;;;;5055745;28;20573;-71
2022/09/18 01:13:39;;;;;;;6.55;0.50;;;21.70;67.90;;;;;;5055863;28;20045;-71
2022/09/18 01:16:13;;;;;;;1.38;0.40;;;21.70;68.00;;;;;;5055666;28;20020;-71
2022/09/18 01:18:56;;;;;;;0.50;0.40;;;21.70;67.90;;;;;;5072261;28;20036;-71
2022/09/18 01:21:50;;;;;;;1.15;0.55;;;21.60;67.90;;;;;;5055681;28;20020;-71
2022/09/18 01:24:30;;;;;;;1.42;0.50;;;21.60;67.90;;;;;;4992892;28;20042;-71
2022/09/18 01:27:03;;;;;;;0.40;0.40;;;21.60;68.00;;;;;;4976498;28;20034;-71
2022/09/18 01:29:54;;;;;;;1.55;0.30;;;21.60;67.90;;;;;;4976886;28;20034;-71
2022/09/18 01:32:26;;;;;;;0.40;0.40;;;21.60;68.00;;;;;;4976280;28;20061;-71
2022/09/18 01:34:57;;;;;;;;;;;21.60;68.00;;;;;;4976937;28;20507;-71
2022/09/18 01:37:47;;;;;;;0.43;0.40;;;21.60;68.00;;;;;;4976417;28;19944;-71
2022/09/18 01:40:17;;;;;;;1.00;0.30;;;21.60;68.00;;;;;;4977159;28;20514;-71
2022/09/18 01:42:43;;;;;;;1.17;0.40;;;21.50;68.00;;;;;;4953948;28;20035;-71
2022/09/18 01:45:11;;;;;;;0.85;0.38;;;21.60;68.10;;;;;;4930804;28;20519;-71
2022/09/18 01:47:49;;;;;;;0.38;0.32;;;21.50;68.00;;;;;;4957143;28;20041;-71
2022/09/18 01:50:15;;;;;;;3.65;0.57;;;21.50;68.00;;;;;;4956977;28;20166;-71
2022/09/18 01:52:44;;;;;;;1.63;0.40;;;21.50;68.00;;;;;;4956893;28;20113;-71
2022/09/18 01:55:13;;;;;;;0.75;0.40;;;21.50;68.00;;;;;;4957048;28;20053;-71
2022/09/18 01:57:57;;;;;;;1.15;0.52;;;21.50;68.00;;;;;;4956970;28;20034;-71
2022/09/18 02:00:24;;;;;;;0.80;0.40;;;21.50;68.20;;;;;;4970252;28;20038;-71
2022/09/18 02:02:50;;;;;;;0.85;0.40;;;21.50;68.20;;;;;;5055932;28;20024;-71
2022/09/18 02:05:27;;;;;;;1.90;0.40;;;21.50;68.20;;;;;;5073270;28;20478;-71
2022/09/18 02:07:52;;;;;;;1.52;0.60;;;21.50;68.20;;;;;;5090761;28;20024;-71
2022/09/18 02:10:18;;;;;;;1.02;0.52;;;21.50;68.20;;;;;;5114157;28;20031;-71
2022/09/18 02:12:44;;;;;;;0.22;0.22;;;21.50;68.30;;;;;;5095753;28;20023;-71
2022/09/18 02:15:12;;;;;;;0.95;0.43;;;21.50;68.50;;;;;;5114011;28;20380;-71
2022/09/18 02:17:50;;;;;;;0.93;0.43;;;21.50;68.20;;;;;;5096038;28;20019;-71
2022/09/18 02:20:21;;;;;;;1.95;0.60;;;21.50;68.30;;;;;;5111755;28;20013;-71
2022/09/18 02:22:47;;;;;;;4.20;0.40;;;21.40;68.20;;;;;;5095835;28;20034;-71
2022/09/18 02:25:15;;;;;;;1.25;0.35;;;21.40;68.20;;;;;;5095954;28;20107;-71
2022/09/18 02:27:41;;;;;;;0.32;0.30;;;21.40;69.20;;;;;;5112505;28;20033;-71
2022/09/18 02:30:07;;;;;;;0.90;0.40;;;21.40;68.20;;;;;;5095576;28;20024;-71
2022/09/18 02:32:35;;;;;;;2.75;0.43;;;21.40;68.20;;;;;;5112224;28;20107;-71
2022/09/18 02:35:01;;;;;;;1.40;0.30;;;21.40;68.30;;;;;;5095209;28;20037;-71
2022/09/18 02:37:36;;;;;;;1.17;0.40;;;21.40;68.20;;;;;;5112744;28;20019;-71
2022/09/18 02:40:23;;;;;;;1.63;0.60;;;21.40;68.30;;;;;;5112132;28;20478;-71
2022/09/18 02:43:19;;;;;;;2.17;0.50;;;21.40;68.30;;;;;;5087126;28;20074;-71
2022/09/18 02:46:06;;;;;;;1.02;0.60;;;21.40;68.30;;;;;;5072658;28;20032;-71
2022/09/18 02:49:06;;;;;;;2.47;0.52;;;21.40;68.30;;;;;;5071412;28;20161;-72
2022/09/18 02:51:43;;;;;;;0.52;0.50;;;21.40;68.40;;;;;;5071776;28;20028;-71
2022/09/18 02:54:26;;;;;;;2.58;0.82;;;21.40;68.40;;;;;;5072408;28;20082;-71
2022/09/18 02:56:56;;;;;;;;;;;21.40;68.40;;;;;;5071850;28;20025;-71
2022/09/18 02:59:23;;;;;;;0.85;0.40;;;21.40;68.40;;;;;;5071476;28;19904;-71
2022/09/18 03:01:49;;;;;;;1.08;0.38;;;21.30;68.30;;;;;;5071162;28;20110;-71
2022/09/18 03:04:19;;;;;;;1.05;0.32;;;21.30;68.40;;;;;;5071001;28;20115;-71
2022/09/18 03:06:45;;;;;;;0.82;0.40;;;21.30;68.40;;;;;;5087728;28;20429;-71
2022/09/18 03:09:11;;;;;;;3.10;0.50;;;21.30;68.40;;;;;;5112956;28;20031;-71
2022/09/18 03:11:36;;;;;;;4.88;0.40;;;21.30;68.40;;;;;;5111763;28;20024;-71
2022/09/18 03:14:02;;;;;;;1.05;0.40;;;21.30;68.40;;;;;;5112651;28;20028;-71
2022/09/18 03:16:28;;;;;;;0.30;0.20;;;21.30;68.40;;;;;;5111855;28;20068;-71
2022/09/18 03:18:54;;;;;;;0.52;0.40;;;21.30;68.40;;;;;;5112585;28;20019;-71
2022/09/18 03:21:19;;;;;;;1.35;0.50;;;21.30;68.40;;;;;;5112905;28;20020;-71
2022/09/18 03:23:45;;;;;;;0.43;0.43;;;21.30;68.50;;;;;;5094790;28;20024;-71
2022/09/18 03:26:11;;;;;;;0.82;0.50;;;21.30;68.40;;;;;;5112889;28;20047;-71
2022/09/18 03:28:36;;;;;;;1.88;0.35;;;21.30;68.50;;;;;;5112740;28;20128;-71
2022/09/18 03:31:02;;;;;;;0.50;0.40;;;21.30;68.40;;;;;;5112647;28;20027;-71
2022/09/18 03:33:28;;;;;;;0.55;0.35;;;21.30;68.50;;;;;;5112429;28;20034;-71
2022/09/18 03:35:53;;;;;;;0.52;0.35;;;21.30;68.50;;;;;;5112536;28;20099;-71
2022/09/18 03:38:19;;;;;;;0.68;0.40;;;21.30;68.50;;;;;;5111481;28;20381;-71
2022/09/18 03:40:45;;;;;;;0.30;0.30;;;21.20;68.40;;;;;;5112633;28;20526;-71
2022/09/18 03:43:10;;;;;;;1.67;0.50;;;21.20;68.40;;;;;;5080053;28;20039;-71
2022/09/18 03:45:36;;;;;;;1.10;0.50;;;21.30;68.50;;;;;;5070836;28;20021;-71
2022/09/18 03:48:02;;;;;;;0.20;0.20;;;21.30;68.50;;;;;;5070583;28;20082;-71
2022/09/18 03:50:28;;;;;;;0.57;0.30;;;21.30;68.60;;;;;;5070456;28;20127;-71
2022/09/18 03:52:54;;;;;;;0.73;0.40;;;21.20;68.50;;;;;;5071966;28;20043;-71
2022/09/18 03:55:21;;;;;;;0.47;0.30;;;21.20;68.50;;;;;;5072058;28;20017;-71
2022/09/18 03:57:47;;;;;;;0.60;0.40;;;21.20;68.60;;;;;;5070705;28;20031;-71
2022/09/18 04:00:13;;;;;;;0.73;0.32;;;21.20;68.50;;;;;;5070485;28;20403;-71
2022/09/18 04:02:39;;;;;;;1.70;0.47;;;21.20;68.50;;;;;;5071791;28;20039;-71
2022/09/18 04:05:05;;;;;;;1.55;0.40;;;21.20;68.60;;;;;;5071711;28;20025;-71
2022/09/18 04:07:31;;;;;;;0.70;0.50;;;21.20;68.60;;;;;;5099658;28;20024;-71
2022/09/18 04:09:57;;;;;;;0.30;0.30;;;21.20;68.60;;;;;;5112284;28;20023;-71
2022/09/18 04:12:23;;;;;;;0.90;0.45;;;21.20;68.60;;;;;;5111075;28;20016;-71
2022/09/18 04:14:48;;;;;;;0.60;0.55;;;21.20;68.60;;;;;;5111255;28;20076;-71
2022/09/18 04:17:14;;;;;;;0.25;0.25;;;21.20;68.60;;;;;;5112010;28;20028;-71
2022/09/18 04:19:40;;;;;;;0.50;0.30;;;21.20;68.70;;;;;;5111242;28;20024;-71
2022/09/18 04:22:06;;;;;;;1.45;0.30;;;21.20;68.70;;;;;;5112185;28;20157;-71
2022/09/18 04:24:31;;;;;;;2.28;0.32;;;21.20;68.70;;;;;;5112249;28;20024;-71
2022/09/18 04:26:57;;;;;;;0.30;0.28;;;21.20;68.70;;;;;;5111000;28;20049;-71
2022/09/18 04:29:23;;;;;;;0.30;0.25;;;21.10;68.70;;;;;;5112159;28;20055;-71
2022/09/18 04:31:48;;;;;;;0.60;0.30;;;21.10;68.60;;;;;;5111032;28;20085;-71
2022/09/18 04:34:17;;;;;;;2.05;0.32;;;21.10;68.70;;;;;;5111875;28;20027;-71
2022/09/18 04:36:42;;;;;;;0.22;0.22;;;21.10;68.60;;;;;;5111236;28;20070;-71
2022/09/18 04:39:08;;;;;;;1.58;0.40;;;21.10;68.70;;;;;;5111859;28;20020;-71
2022/09/18 04:41:34;;;;;;;0.60;0.20;;;21.10;68.60;;;;;;5107979;28;20023;-71
2022/09/18 04:43:59;;;;;;;2.40;0.30;;;21.10;68.60;;;;;;5072393;28;20560;-71
2022/09/18 04:46:25;;;;;;;0.30;0.30;;;21.10;68.70;;;;;;5074983;28;20066;-71
2022/09/18 04:48:52;;;;;;;0.82;0.40;;;21.10;68.70;;;;;;5075291;28;20060;-71
2022/09/18 04:51:18;;;;;;;0.63;0.40;;;21.10;68.70;;;;;;5073707;28;20039;-71
2022/09/18 04:53:43;;;;;;;0.30;0.30;;;21.10;68.70;;;;;;5075049;28;20024;-71
2022/09/18 04:56:09;;;;;;;1.02;0.60;;;21.10;68.70;;;;;;5074742;28;20020;-71
2022/09/18 04:58:34;;;;;;;0.85;0.40;;;21.10;68.70;;;;;;5074559;28;20024;-71
2022/09/18 05:01:00;;;;;;;0.68;0.47;;;21.10;68.70;;;;;;5074692;28;20025;-71
2022/09/18 05:03:26;;;;;;;0.30;0.30;;;21.10;68.70;;;;;;5074831;28;20396;-71
2022/09/18 05:05:53;;;;;;;0.60;0.30;;;21.00;68.70;;;;;;5075718;28;20028;-71
2022/09/18 05:08:20;;;;;;;0.65;0.40;;;21.00;68.70;;;;;;5114200;28;20027;-70
2022/09/18 05:10:45;;;;;;;2.03;0.30;;;21.10;68.70;;;;;;5115355;28;20015;-71
2022/09/18 05:13:11;;;;;;;1.95;0.45;;;21.00;68.20;;;;;;5114888;28;20358;-71
2022/09/18 05:15:36;;;;;;;0.88;0.32;;;21.10;68.30;;;;;;5115173;28;20028;-71
2022/09/18 05:18:03;;;;;;;0.30;0.30;;;21.10;68.50;;;;;;5115015;28;20020;-71
2022/09/18 05:20:29;;;;;;;0.80;0.30;;;21.00;68.50;;;;;;5097030;28;20026;-71
2022/09/18 05:22:55;;;;;;;1.40;0.40;;;21.00;68.50;;;;;;5097076;28;20027;-71
2022/09/18 05:25:23;;;;;;;2.85;0.40;;;21.00;68.70;;;;;;5113796;28;20495;-71
2022/09/18 05:27:56;;;;;;;1.95;0.40;;;21.00;68.70;;;;;;5114870;28;20024;-71
2022/09/18 05:30:22;;;;;;;0.60;0.38;;;21.00;68.70;;;;;;5114766;28;20023;-71
2022/09/18 05:32:57;;;;;;;2.63;0.40;;;21.00;68.70;;;;;;5096713;28;20026;-71
2022/09/18 05:35:23;;;;;;;2.55;0.30;;;21.00;68.80;;;;;;5114704;28;20028;-71
2022/09/18 05:37:52;;;;;;;1.40;0.45;;;21.00;68.90;;;;;;5115327;28;20020;-71
2022/09/18 05:40:24;;;;;;;2.03;0.60;;;21.00;68.90;;;;;;5114658;28;20023;-71
2022/09/18 05:42:51;;;;;;;0.35;0.30;;;21.00;68.90;;;;;;5087965;28;20025;-70
2022/09/18 05:45:18;;;;;;;0.75;0.40;;;21.00;69.00;;;;;;5073842;28;20039;-71
2022/09/18 05:47:58;;;;;;;1.27;0.40;;;21.00;69.00;;;;;;5092465;28;20111;-71
2022/09/18 05:50:25;;;;;;;0.40;0.40;;;21.00;69.00;;;;;;5093136;28;20044;-71
2022/09/18 05:53:01;;;;;;;0.45;0.30;;;21.00;69.00;;;;;;5072852;28;20037;-71
2022/09/18 05:55:30;;;;;;;0.47;0.32;;;21.00;69.10;;;;;;5071883;28;20021;-70
2022/09/18 05:57:56;;;;;;;2.88;0.50;;;21.00;69.10;;;;;;5073881;28;20476;-71
2022/09/18 06:00:23;;;;;;;1.58;0.52;;;21.00;69.00;;;;;;5074094;28;20027;-71
2022/09/18 06:02:55;;;;;;;0.50;0.32;;;21.00;69.10;;;;;;5061359;28;20016;-70
2022/09/18 06:05:22;;;;;;;2.42;0.35;;;21.00;69.10;;;;;;5090321;28;20051;-71
2022/09/18 06:07:48;;;;;;;1.20;0.35;;;21.00;69.10;;;;;;5108677;28;20098;-70
2022/09/18 06:10:14;;;;;;;0.93;0.40;;;21.00;69.20;;;;;;5112829;28;20123;-71
2022/09/18 06:12:39;;;;;;;1.40;0.55;;;20.90;69.00;;;;;;5113200;28;20098;-71
2022/09/18 06:15:05;;;;;;;0.73;0.40;;;20.90;69.10;;;;;;5113640;28;20020;-71
2022/09/18 06:17:31;;;;;;;0.57;0.35;;;20.90;69.10;;;;;;5113285;28;20023;-71
2022/09/18 06:19:58;;;;;;;0.63;0.30;;;20.90;69.20;;;;;;5113458;28;20031;-71
2022/09/18 06:22:24;;;;;;;1.95;0.63;;;21.00;69.20;;;;;;5112502;28;20039;-71
2022/09/18 06:24:50;;;;;;;0.88;0.40;;;20.90;69.10;;;;;;5113857;28;20019;-71
2022/09/18 06:27:16;;;;;;;3.50;0.47;;;21.00;69.10;;;;;;5113407;28;20019;-71
2022/09/18 06:29:42;;;;;;;0.45;0.30;;;20.90;69.00;;;;;;5112041;28;20024;-70
2022/09/18 06:32:08;;;;;;;0.93;0.20;;;20.90;69.10;;;;;;5112015;28;20101;-70
2022/09/18 06:34:33;;;;;;;1.65;0.32;;;20.90;69.00;;;;;;5113452;28;20070;-71
2022/09/18 06:36:59;;;;;;;1.55;0.40;;;20.90;69.10;;;;;;5113662;28;20025;-71
2022/09/18 06:39:25;;;;;;;6.53;0.55;;;20.90;69.20;;;;;;5113353;28;20024;-71
2022/09/18 06:41:51;;;;;;;2.65;0.70;;;20.90;69.20;;;;;;5104362;28;20400;-71
2022/09/18 06:44:16;;;;;;;1.65;0.47;;;20.90;70.20;;;;;;5071769;28;20028;-71
2022/09/18 06:46:42;;;;;;;4.38;0.73;;;20.90;69.20;;;;;;5071622;28;20455;-71
2022/09/18 06:49:07;;;;;;;0.90;0.30;;;20.90;69.20;;;;;;5072546;28;20512;-71
2022/09/18 06:51:33;;;;;;;3.03;0.52;;;20.90;69.20;;;;;;5072760;28;20100;-71
2022/09/18 06:53:59;;;;;;;2.60;0.30;;;20.90;69.20;;;;;;5071634;28;20107;-71
2022/09/18 06:56:24;;;;;;;1.98;0.60;;;20.90;69.20;;;;;;5072420;28;20020;-71
2022/09/18 06:58:53;;;;;;;0.43;0.40;;;20.90;69.20;;;;;;5072532;28;20029;-71
2022/09/18 07:01:19;;;;;;;2.58;0.52;;;20.90;69.20;;;;;;5072416;28;20017;-70
2022/09/18 07:03:48;;;;;;;0.73;0.30;;;20.90;69.30;;;;;;5071338;28;20032;-70
2022/09/18 07:06:13;;;;;;;4.43;0.60;;;20.90;69.20;;;;;;5079206;28;20426;-71
2022/09/18 07:08:39;;;;;;;1.58;0.60;;;20.90;69.30;;;;;;5112950;28;20028;-71
2022/09/18 07:11:05;;;;;;;3.70;0.65;;;20.80;69.30;;;;;;5112789;28;20022;-71
2022/09/18 07:13:31;;;;;;;4.20;0.80;;;20.90;69.30;;;;;;5111565;28;20032;-71
2022/09/18 07:15:58;;;;;;;2.10;0.50;;;20.80;69.20;;;;;;5094848;28;20011;-71
2022/09/18 07:18:23;;;;;;;1.17;0.35;;;20.80;69.20;;;;;;5112932;28;20019;-71
2022/09/18 07:20:49;;;;;;;2.42;0.40;;;20.80;69.20;;;;;;5094832;28;20031;-70
2022/09/18 07:23:15;;;;;;;0.77;0.38;;;20.80;69.20;;;;;;5112620;28;20074;-70
2022/09/18 07:25:41;;;;;;;2.67;0.40;;;20.80;69.30;;;;;;5111597;28;20024;-71
2022/09/18 07:28:07;;;;;;;1.52;0.20;;;20.80;69.30;;;;;;5111621;28;20376;-70
2022/09/18 07:30:34;;;;;;;1.52;0.30;;;20.80;69.30;;;;;;5111564;28;20019;-70
2022/09/18 07:33:03;;;;;;;0.90;0.40;;;20.80;69.20;;;;;;5112721;28;20027;-70
2022/09/18 07:35:29;;;;;;;0.68;0.30;;;20.80;69.20;;;;;;5111445;28;20061;-70
2022/09/18 07:37:58;;;;;;;2.28;0.28;;;20.80;69.30;;;;;;5094419;28;20024;-70
2022/09/18 07:40:25;;;;;;;2.15;0.30;;;20.80;69.20;;;;;;5111356;28;20027;-70
2022/09/18 07:42:50;;;;;;;1.05;0.45;;;20.80;69.30;;;;;;5086120;28;20407;-70
2022/09/18 07:45:16;;;;;;;0.30;0.30;;;20.80;69.30;;;;;;5104399;28;20128;-70
2022/09/18 07:47:42;;;;;;;2.10;0.70;;;20.80;69.40;;;;;;5070701;28;20056;-70
2022/09/18 07:50:14;;;;;;;1.13;0.30;;;20.80;69.40;;;;;;5054011;28;20033;-70
2022/09/18 07:52:47;;;;;;;2.75;0.38;;;20.70;69.30;;;;;;5071757;28;20400;-70
2022/09/18 07:55:13;;;;;;;2.80;0.40;;;20.70;69.20;;;;;;5071965;28;20032;-70
2022/09/18 07:57:39;;;;;;;0.60;0.30;;;20.70;69.30;;;;;;5071828;28;20078;-70
2022/09/18 08:00:06;;;;;;;1.10;0.40;;;20.70;69.30;;;;;;5071993;28;20039;-70
2022/09/18 08:02:32;;;;;;;0.43;0.40;;;20.70;69.30;;;;;;5071918;28;20023;-70
2022/09/18 08:04:57;;;;;;;1.70;0.50;;;20.70;69.30;;;;;;5071745;28;20024;-70
2022/09/18 08:07:23;;;;;;;1.02;0.35;;;20.70;69.30;;;;;;5098287;28;20026;-70
2022/09/18 08:09:49;;;;;;;0.68;0.28;;;20.70;69.30;;;;;;5111267;28;20033;-70
2022/09/18 08:12:14;;;;;;;0.63;0.40;;;20.70;69.30;;;;;;5112077;28;20024;-70
2022/09/18 08:14:40;;;;;;;0.88;0.30;;;20.70;69.30;;;;;;5112302;28;20056;-70
2022/09/18 08:17:06;;;;;;;0.25;0.20;;;20.70;69.30;;;;;;5112292;28;20091;-70
2022/09/18 08:19:31;;;;;;;0.90;0.30;;;20.70;69.30;;;;;;5115525;28;20406;-70
2022/09/18 08:21:57;;;;;;;0.90;0.50;;;20.70;69.30;;;;;;5116045;28;20016;-70
2022/09/18 08:24:23;;;;;;;0.75;0.30;;;20.70;69.30;;;;;;5114860;28;20483;-70
2022/09/18 08:26:49;;;;;;;0.40;0.40;;;20.70;69.30;;;;;;5116222;28;20030;-70
2022/09/18 08:29:17;;;;;;;1.35;0.40;;;20.70;69.30;;;;;;5114861;28;20046;-70
2022/09/18 08:31:47;;;;;;;0.50;0.40;;;20.70;69.30;;;;;;5115943;28;20107;-70
2022/09/18 08:34:12;;;;;;;0.65;0.45;;;20.70;69.30;;;;;;5116067;27;20098;-70
2022/09/18 08:36:38;;;;;;;0.65;0.40;;;20.70;69.30;;;;;;5114413;28;20121;-70
2022/09/18 08:39:05;;;;;;;0.57;0.32;;;20.70;69.30;;;;;;5116018;28;20020;-71
2022/09/18 08:41:42;;;;;;;0.43;0.40;;;20.70;69.40;;;;;;5112677;28;20023;-71
2022/09/18 08:44:10;;;;;;;1.00;0.40;;;20.60;69.30;;;;;;5075248;28;20416;-71
2022/09/18 08:46:41;;;;;;;1.48;0.40;;;20.60;69.30;;;;;;5073861;28;20031;-71
2022/09/18 08:49:22;;;;;;;0.43;0.30;;;20.60;69.30;;;;;;5073682;28;20412;-71
2022/09/18 08:52:10;;;;;;;0.15;0.15;;;20.70;69.40;;;;;;5074817;28;20025;-71
2022/09/18 08:54:38;;;;;;;1.20;0.30;;;20.60;69.40;;;;;;5074847;28;20113;-71
2022/09/18 08:57:27;;;;;;;0.85;0.30;;;20.60;69.40;;;;;;5073827;28;20060;-71
2022/09/18 09:00:18;;;;;;;2.45;0.40;;;20.60;69.40;;;;;;5073711;28;20024;-71
2022/09/18 09:02:52;;;;;;;0.20;0.20;;;20.60;69.40;;;;;;5035871;28;20036;-74
2022/09/18 09:05:21;;;;;;;2.75;0.70;;;20.60;69.40;;;;;;5035902;28;20115;-74
2022/09/18 09:08:24;;;;;;;0.50;0.45;;;20.60;69.40;;;;;;5068756;28;20699;-74
2022/09/18 09:10:55;;;;;;;1.17;0.25;;;20.60;69.50;;;;;;5091335;28;20027;-75
2022/09/18 09:13:34;;;;;;;0.28;0.28;;;20.60;69.50;;;;;;5060039;28;20123;-75
2022/09/18 09:16:27;;;;;;;0.95;0.50;;;20.60;67.70;;;;;;5060693;28;20040;-74
2022/09/18 09:19:00;;;;;;;0.25;0.20;;;20.50;66.80;;;;;;5056585;28;20448;-74
2022/09/18 09:21:51;;;;;;;0.30;0.20;;;20.50;66.80;;;;;;5055642;28;20029;-74
2022/09/18 09:24:30;;;;;;;1.55;0.22;;;20.50;66.90;;;;;;5057210;28;20038;-74
2022/09/18 09:26:56;;;;;;;1.42;0.40;;;20.40;66.90;;;;;;5039269;28;20037;-74
2022/09/18 09:29:30;;;;;;;1.55;0.40;;;20.50;66.90;;;;;;5055378;28;20112;-74
2022/09/18 09:31:58;;;;;;;0.50;0.47;;;20.40;66.90;;;;;;5039773;28;20044;-74
2022/09/18 09:34:39;;;;;;;1.00;0.35;;;20.40;67.00;;;;;;5038737;28;20040;-77
2022/09/18 09:37:07;;;;;;;26.17;4.28;;;20.40;67.00;;;;;;5039172;28;20028;-79
2022/09/18 09:39:38;;;;;;;7.78;1.33;;;20.40;67.10;;;;;;5043581;28;20094;-80
2022/09/18 09:42:28;;;;;;;16.05;1.63;;;20.50;67.20;;;;;;5071999;28;20024;-80
2022/09/18 09:45:15;;;;;;;14.32;2.70;;;20.40;67.20;;;;;;5073002;28;20032;-80
2022/09/18 09:48:05;;;;;;;9.27;2.20;;;20.40;67.40;;;;;;5072669;28;20488;-80
2022/09/18 09:51:00;;;;;;;16.52;2.38;;;20.40;67.30;;;;;;5072261;28;20044;-80
2022/09/18 09:53:26;;;;;;;10.77;2.72;;;20.40;67.60;;;;;;5072732;28;20032;-80
2022/09/18 09:56:13;;;;;;;13.40;2.97;;;20.40;67.70;;;;;;5072577;28;20025;-80
2022/09/18 09:59:07;;;;;;;20.40;3.13;;;20.40;67.70;;;;;;5073674;28;20025;-80
2022/09/18 10:01:42;;;;;;;13.80;3.00;;;20.40;67.90;;;;;;5071303;28;20036;-80
2022/09/18 10:04:26;;;;;;;12.27;3.08;;;20.40;67.80;;;;;;5072329;28;20074;-80
2022/09/18 10:07:22;;;;;;;19.08;4.03;;;20.40;67.70;;;;;;5091495;28;20113;-81
2022/09/18 10:10:03;;;;;;;23.65;3.38;;;20.40;67.80;;;;;;5076375;28;20039;-80
2022/09/18 10:12:50;;;;;;;18.38;3.03;;;20.40;67.80;;;;;;5112864;28;20019;-80
2022/09/18 10:15:30;;;;;;;15.60;3.30;;;20.40;67.90;;;;;;5114040;28;20590;-80
2022/09/18 10:17:57;;;;;;;17.23;3.42;;;20.30;67.80;;;;;;5096376;28;20027;-80
2022/09/18 10:20:27;;;;;;;20.05;3.47;;;20.30;67.80;;;;;;5112877;28;20096;-81
2022/09/18 10:22:54;;;;;;;10.57;3.42;;;20.30;67.80;;;;;;5095828;28;20476;-80
2022/09/18 10:25:34;;;;;;;13.30;3.10;;;20.30;67.70;;;;;;5095890;28;20065;-80
2022/09/18 10:28:00;;;;;;;15.23;3.03;;;20.30;67.80;;;;;;5112572;28;20106;-80
2022/09/18 10:30:26;;;;;;;18.52;3.58;;;20.30;67.80;;;;;;5112566;28;20555;-80
2022/09/18 10:32:52;;;;;;;11.90;2.92;;;20.30;67.70;;;;;;5112170;28;20095;-80
2022/09/18 10:35:28;;;;;;;12.43;3.10;;;20.30;67.70;;;;;;5112480;28;20019;-80
2022/09/18 10:37:54;;;;;;;18.40;3.60;;;20.30;67.70;;;;;;5113449;28;20032;-80
2022/09/18 10:40:30;;;;;;;7.95;3.22;;;20.30;67.70;;;;;;5094787;28;20022;-80
2022/09/18 10:42:56;;;;;;;14.77;3.35;;;20.30;67.70;;;;;;5086643;28;20017;-80
2022/09/18 10:45:24;;;;;;;17.92;3.72;;;20.30;67.70;;;;;;5071856;28;20096;-80
2022/09/18 10:47:49;;;;;;;13.70;3.17;;;20.30;67.70;;;;;;5071580;28;20021;-80
2022/09/18 10:50:18;;;;;;;13.13;3.42;;;20.30;67.60;;;;;;5071273;28;20542;-80
2022/09/18 10:52:48;;;;;;;14.57;3.10;;;20.30;67.60;;;;;;5071406;28;20046;-80
2022/09/18 10:55:15;;;;;;;10.10;2.50;;;20.20;67.70;;;;;;5071672;28;20484;-80
2022/09/18 10:57:47;;;;;;;16.52;3.95;;;20.20;67.70;;;;;;5072539;28;20537;-80
2022/09/18 11:00:19;;;;;;;10.77;3.10;;;20.30;67.70;;;;;;5072693;28;20477;-80
2022/09/18 11:02:57;;;;;;;9.20;2.93;;;20.20;67.70;;;;;;5072380;28;20307;-80
2022/09/18 11:05:34;;;;;;;8.20;3.25;;;20.20;67.70;;;;;;5071989;28;20062;-80
2022/09/18 11:08:04;;;;;;;10.00;3.00;;;20.20;67.70;;;;;;5108176;28;20069;-80
2022/09/18 11:10:31;;;;;;;10.77;3.10;;;20.20;67.70;;;;;;5095520;28;20019;-80
2022/09/18 11:12:58;;;;;;;8.40;2.83;;;20.20;68.70;;;;;;5111427;28;20165;-80
2022/09/18 11:15:30;;;;;;;10.65;2.67;;;20.20;67.80;;;;;;5094984;28;20054;-80
2022/09/18 11:17:57;;;;;;;11.30;3.55;;;20.20;67.80;;;;;;5095521;28;20475;-80
2022/09/18 11:20:25;;;;;;;8.02;2.53;;;20.20;67.70;;;;;;5095122;28;20015;-80
2022/09/18 11:22:51;;;;;;;7.97;2.58;;;20.20;67.70;;;;;;5111671;28;20020;-80
2022/09/18 11:25:19;;;;;;;8.55;2.92;;;20.20;67.70;;;;;;5094876;28;20100;-80
2022/09/18 11:27:50;;;;;;;9.38;2.80;;;20.20;67.70;;;;;;5111557;28;20418;-80
2022/09/18 11:30:18;;;;;;;10.20;3.00;;;20.20;67.70;;;;;;5111544;28;20020;-80
2022/09/18 11:32:44;;;;;;;8.55;3.10;;;20.20;67.70;;;;;;5111456;28;20483;-80
2022/09/18 11:35:14;;;;;;;8.95;2.75;;;20.20;67.70;;;;;;5094761;28;20027;-80
2022/09/18 11:37:45;;;;;;;12.95;3.45;;;20.20;67.80;;;;;;5094777;28;20024;-80
2022/09/18 11:40:18;;;;;;;9.88;2.70;;;20.20;67.70;;;;;;5094932;28;20034;-81
2022/09/18 11:42:45;;;;;;;9.77;2.85;;;20.20;67.70;;;;;;5088179;28;20012;-80
2022/09/18 11:45:56;;;;;;;12.30;2.70;;;20.20;67.70;;;;;;5054295;28;20029;-80
2022/09/18 11:48:31;;;;;;;8.65;2.47;;;20.20;67.70;;;;;;5048164;28;20078;-80
2022/09/18 11:51:01;;;;;;;7.10;3.13;;;20.20;67.70;;;;;;5071788;28;20040;-80
2022/09/18 11:53:28;;;;;;;12.02;2.65;;;20.20;67.70;;;;;;5058034;28;20056;-80
2022/09/18 11:56:05;;;;;;;10.50;2.92;;;20.10;67.70;;;;;;5076041;28;20028;-80
2022/09/18 11:58:52;;;;;;;8.70;3.15;;;20.20;67.70;;;;;;5075993;28;20044;-80
2022/09/18 12:01:37;;;;;;;7.15;2.78;;;20.10;67.60;;;;;;5058464;28;20017;-80
2022/09/18 12:04:34;;;;;;;7.15;2.47;;;20.10;67.60;;;;;;5058958;28;20023;-80
2022/09/18 12:07:27;;;;;;;8.27;2.72;;;20.10;67.70;;;;;;5079197;28;20027;-80
2022/09/18 12:09:57;;;;;;;;;;;20.10;67.70;;;;;;5116843;28;20024;-80
2022/09/18 12:12:28;;;;;;;10.75;2.60;;;20.10;67.70;;;;;;5115294;28;19911;-80
2022/09/18 12:15:02;;;;;;;7.45;2.72;;;20.10;67.70;;;;;;5098470;28;20024;-81
2022/09/18 12:17:36;;;;;;;5.32;2.25;;;20.10;67.80;;;;;;5115427;28;20015;-81
2022/09/18 12:20:09;;;;;;;5.78;2.13;;;20.10;67.70;;;;;;5114940;28;20429;-80
2022/09/18 12:22:53;;;;;;;8.23;3.00;;;20.10;67.70;;;;;;5115171;28;20043;-80
2022/09/18 12:25:19;;;;;;;7.25;2.20;;;20.10;67.60;;;;;;5115072;28;20016;-80
2022/09/18 12:27:49;;;;;;;7.75;2.75;;;20.10;67.60;;;;;;5114849;28;20108;-80
2022/09/18 12:30:19;;;;;;;6.78;2.80;;;20.10;67.70;;;;;;5114782;28;20023;-80
2022/09/18 12:32:53;;;;;;;8.02;2.40;;;20.10;67.70;;;;;;5098043;28;20035;-81
2022/09/18 12:35:41;;;;;;;8.93;2.80;;;20.10;67.70;;;;;;5115934;28;20016;-80
2022/09/18 12:38:28;;;;;;;4.30;2.35;;;20.10;67.70;;;;;;5114697;28;20019;-80
2022/09/18 12:41:23;;;;;;;7.68;2.30;;;20.10;67.70;;;;;;5115907;28;20019;-80
2022/09/18 12:44:08;;;;;;;6.78;2.25;;;20.10;67.80;;;;;;5073670;28;20059;-80
2022/09/18 12:46:40;;;;;;;7.50;2.25;;;20.10;67.90;;;;;;5074083;28;20063;-80
2022/09/18 12:49:12;;;;;;;4.85;2.10;;;20.10;67.90;;;;;;5074733;28;20157;-80
2022/09/18 12:51:56;;;;;;;;;;;20.20;68.00;;;;;;5074335;28;20112;-80
2022/09/18 12:54:41;;;;;;;4.88;2.35;;;20.10;67.90;;;;;;5074814;28;19909;-81
2022/09/18 12:57:28;;;;;;;8.55;2.50;;;20.10;67.90;;;;;;5074703;28;20031;-80
2022/09/18 13:00:13;;;;;;;7.30;2.50;;;20.10;68.00;;;;;;5075555;28;20451;-80
2022/09/18 13:02:47;;;;;;;6.32;2.60;;;20.10;68.00;;;;;;5073743;28;20023;-80
2022/09/18 13:05:28;;;;;;;9.35;2.78;;;20.10;68.00;;;;;;5073070;28;20393;-80